createdAt,value
2023-01-05T00:00:16.134Z,40.90
2023-01-05T00:02:45.976Z,40.30
2023-01-05T00:05:15.495Z,40.05
2023-01-05T00:07:44.989Z,40.17
2023-01-05T00:10:34.587Z,38.80
2023-01-05T00:13:21.817Z,40.23
2023-01-05T00:16:09.624Z,38.13
2023-01-05T00:18:57.001Z,39.48
2023-01-05T00:21:44.592Z,33.70
2023-01-05T00:24:14.001Z,37.15
2023-01-05T00:26:43.446Z,34.63
2023-01-05T00:29:13.390Z,32.28
2023-01-05T00:31:42.876Z,28.55
2023-01-05T00:34:12.887Z,30.70
2023-01-05T00:36:43.966Z,25.90
2023-01-05T00:39:13.371Z,25.73
2023-01-05T00:41:43.845Z,25.37
2023-01-05T00:44:13.431Z,25.05
2023-01-05T00:46:42.904Z,23.50
2023-01-05T00:49:12.398Z,22.67
2023-01-05T00:51:43.096Z,25.60
2023-01-05T00:54:12.932Z,22.70
2023-01-05T00:56:42.375Z,20.70
2023-01-05T00:59:12.361Z,22.95
2023-01-05T01:01:42.017Z,18.07
2023-01-05T01:04:11.455Z,21.17
2023-01-05T01:06:41.465Z,19.57
2023-01-05T01:09:11.628Z,20.95
2023-01-05T01:11:41.567Z,21.73
2023-01-05T01:14:13.903Z,18.42
2023-01-05T01:16:45.077Z,23.90
2023-01-05T01:19:20.253Z,20.27
2023-01-05T01:21:50.938Z,22.27
2023-01-05T01:24:23.793Z,17.45
2023-01-05T01:26:54.745Z,18.80
2023-01-05T01:29:25.589Z,18.87
2023-01-05T01:31:55.339Z,18.48
2023-01-05T01:34:25.046Z,19.40
2023-01-05T01:36:57.553Z,20.17
2023-01-05T01:39:28.749Z,21.05
2023-01-05T01:41:59.873Z,20.27
2023-01-05T01:44:50.253Z,20.82
2023-01-05T01:47:30.747Z,20.75
2023-01-05T01:50:05.137Z,26.35
2023-01-05T01:52:36.098Z,24.32
2023-01-05T01:55:07.669Z,18.70
2023-01-05T01:57:39.804Z,17.73
2023-01-05T02:05:23.252Z,17.92
2023-01-05T02:07:53.028Z,17.07
2023-01-05T02:10:26.163Z,18.05
2023-01-05T02:13:08.181Z,13.50
2023-01-05T02:15:46.263Z,15.18
2023-01-05T02:18:24.771Z,15.45
2023-01-05T02:21:01.126Z,14.18
2023-01-05T02:23:45.861Z,17.70
2023-01-05T02:26:31.496Z,15.20
2023-01-05T02:29:34.777Z,12.88
2023-01-05T02:32:16.341Z,13.37
2023-01-05T02:37:19.928Z,14.13
2023-01-05T02:39:55.403Z,15.72
2023-01-05T02:42:28.938Z,13.90
2023-01-05T02:44:58.445Z,14.58
2023-01-05T02:47:31.625Z,13.18
2023-01-05T02:50:11.781Z,13.65
2023-01-05T02:53:05.901Z,14.90
2023-01-05T02:55:56.838Z,16.82
2023-01-05T02:58:32.744Z,17.77
2023-01-05T03:01:08.774Z,14.10
2023-01-05T03:03:43.169Z,15.35
2023-01-05T03:06:22.538Z,12.55
2023-01-05T03:11:55.504Z,10.63
2023-01-05T03:14:49.322Z,14.07
2023-01-05T03:17:22.180Z,11.95
2023-01-05T03:19:56.632Z,13.38
2023-01-05T03:22:47.096Z,10.58
2023-01-05T03:26:00.410Z,10.28
2023-01-05T03:28:58.672Z,13.68
2023-01-05T03:31:56.876Z,9.57
2023-01-05T03:35:17.895Z,10.60
2023-01-05T03:38:04.329Z,11.33
2023-01-05T03:40:37.730Z,13.37
2023-01-05T03:43:08.949Z,10.20
2023-01-05T03:48:12.075Z,10.00
2023-01-05T03:55:41.753Z,15.30
2023-01-05T03:58:11.497Z,12.53
2023-01-05T04:00:42.639Z,16.02
2023-01-05T04:03:13.024Z,12.55
2023-01-05T04:08:13.689Z,10.23
2023-01-05T04:10:43.118Z,10.43
2023-01-05T04:18:13.229Z,12.03
2023-01-05T04:20:45.132Z,12.00
2023-01-05T04:25:46.578Z,9.75
2023-01-05T04:28:17.775Z,8.33
2023-01-05T04:30:51.857Z,10.43
2023-01-05T04:33:23.432Z,9.78
2023-01-05T04:35:54.239Z,9.05
2023-01-05T04:38:25.392Z,9.48
2023-01-05T04:40:55.646Z,15.30
2023-01-05T04:45:56.365Z,7.05
2023-01-05T04:50:56.805Z,8.70
2023-01-05T04:58:27.196Z,12.35
2023-01-05T05:03:32.757Z,8.48
2023-01-05T05:06:00.129Z,12.65
2023-01-05T05:08:30.431Z,11.25
2023-01-05T05:11:01.360Z,10.00
2023-01-05T05:13:31.833Z,9.05
2023-01-05T05:18:32.039Z,11.68
2023-01-05T05:21:02.295Z,9.13
2023-01-05T05:23:33.433Z,9.85
2023-01-05T05:26:03.171Z,7.12
2023-01-05T05:28:33.292Z,9.75
2023-01-05T05:31:03.452Z,8.90
2023-01-05T05:33:33.005Z,7.62
2023-01-05T05:36:02.418Z,8.75
2023-01-05T05:38:31.873Z,8.58
2023-01-05T05:41:01.293Z,6.67
2023-01-05T05:43:30.721Z,8.08
2023-01-05T05:46:00.779Z,7.87
2023-01-05T05:48:30.273Z,10.40
2023-01-05T05:50:59.703Z,6.65
2023-01-05T05:53:30.316Z,7.90
2023-01-05T05:55:59.820Z,13.13
2023-01-05T05:58:29.224Z,7.90
2023-01-05T06:01:00.362Z,11.43
2023-01-05T06:03:29.855Z,6.28
2023-01-05T06:05:59.432Z,9.28
2023-01-05T06:08:30.018Z,10.15
2023-01-05T06:18:28.742Z,11.18
2023-01-05T06:21:01.757Z,6.85
2023-01-05T06:23:29.703Z,7.33
2023-01-05T06:25:59.210Z,7.50
2023-01-05T06:30:57.501Z,11.68
2023-01-05T06:33:26.923Z,14.33
2023-01-05T06:35:57.982Z,7.05
2023-01-05T06:38:30.163Z,8.50
2023-01-05T06:40:59.879Z,9.95
2023-01-05T06:43:29.567Z,9.67
2023-01-05T06:45:59.336Z,10.82
2023-01-05T06:48:29.246Z,8.17
2023-01-05T06:50:58.847Z,6.92
2023-01-05T06:53:28.456Z,9.03
2023-01-05T06:55:57.882Z,8.48
2023-01-05T06:58:27.332Z,10.13
2023-01-05T07:03:25.607Z,7.90
2023-01-05T07:08:23.923Z,10.60
2023-01-05T07:10:53.355Z,7.65
2023-01-05T07:13:22.892Z,8.77
2023-01-05T07:15:52.501Z,9.43
2023-01-05T07:18:21.927Z,10.68
2023-01-05T07:20:51.359Z,12.10
2023-01-05T07:23:21.294Z,10.00
2023-01-05T07:25:50.716Z,12.85
2023-01-05T07:28:20.142Z,11.50
2023-01-05T07:30:54.375Z,14.10
2023-01-05T07:33:23.880Z,13.75
2023-01-05T07:35:53.718Z,11.32
2023-01-05T07:38:23.232Z,7.65
2023-01-05T07:40:52.811Z,14.50
2023-01-05T07:43:22.523Z,12.18
2023-01-05T07:45:52.039Z,7.05
2023-01-05T07:48:23.599Z,10.18
2023-01-05T08:00:59.483Z,12.45
2023-01-05T08:03:28.957Z,11.90
2023-01-05T08:10:55.782Z,11.88
2023-01-05T08:13:43.708Z,10.70
2023-01-05T08:16:13.176Z,12.47
2023-01-05T08:21:11.422Z,12.50
2023-01-05T08:23:41.216Z,11.93
2023-01-05T08:26:13.720Z,10.20
2023-01-05T08:28:44.764Z,11.60
2023-01-05T08:31:18.893Z,10.80
2023-01-05T08:33:48.523Z,13.98
2023-01-05T08:36:21.261Z,15.10
2023-01-05T08:41:24.181Z,21.52
2023-01-05T08:43:56.248Z,22.60
2023-01-05T08:46:28.844Z,18.87
2023-01-05T08:49:01.262Z,13.65
2023-01-05T08:51:31.849Z,20.53
2023-01-05T08:54:01.735Z,13.30
2023-01-05T08:56:37.986Z,15.75
2023-01-05T08:59:02.597Z,12.37
2023-01-05T09:01:32.811Z,16.67
2023-01-05T09:04:02.638Z,15.20
2023-01-05T09:06:32.202Z,13.83
2023-01-05T09:09:02.799Z,12.87
2023-01-05T09:11:32.346Z,16.80
2023-01-05T09:14:03.831Z,11.63
2023-01-05T09:17:06.307Z,15.43
2023-01-05T09:19:07.199Z,10.95
2023-01-05T09:21:39.111Z,16.27
2023-01-05T09:26:38.186Z,12.20
2023-01-05T09:29:07.617Z,12.85
2023-01-05T09:31:37.408Z,10.48
2023-01-05T09:34:07.059Z,12.55
2023-01-05T09:36:39.201Z,8.85
2023-01-05T09:39:08.755Z,9.97
2023-01-05T09:41:45.060Z,16.75
2023-01-05T09:44:32.753Z,12.80
2023-01-05T09:47:06.110Z,16.67
2023-01-05T09:49:36.559Z,14.68
2023-01-05T09:52:11.451Z,24.87
2023-01-05T09:54:41.924Z,22.25
2023-01-05T09:57:24.225Z,17.07
2023-01-05T09:59:58.113Z,14.53
2023-01-05T10:02:34.089Z,17.10
2023-01-05T10:05:06.388Z,18.50
2023-01-05T10:11:07.708Z,25.95
2023-01-05T10:13:40.599Z,21.42
2023-01-05T10:24:19.860Z,19.10
2023-01-05T10:27:24.280Z,16.67
2023-01-05T10:29:32.491Z,22.98
2023-01-05T10:32:27.693Z,13.85
2023-01-05T10:35:00.029Z,12.30
2023-01-05T10:40:11.891Z,17.57
2023-01-05T10:43:09.121Z,17.67
2023-01-05T10:46:03.192Z,19.27
2023-01-05T10:48:16.339Z,19.43
2023-01-05T10:50:48.318Z,16.60
2023-01-05T10:53:24.752Z,17.90
2023-01-05T10:56:09.605Z,17.82
2023-01-05T10:58:45.087Z,18.25
2023-01-05T11:01:29.686Z,14.47
2023-01-05T11:04:34.266Z,15.78
2023-01-05T11:06:55.169Z,17.05
2023-01-05T11:09:27.270Z,13.05
2023-01-05T11:12:00.180Z,19.73
2023-01-05T11:14:32.718Z,14.35
2023-01-05T11:19:35.874Z,13.88
2023-01-05T11:22:05.373Z,14.18
2023-01-05T11:24:37.665Z,16.50
2023-01-05T11:27:25.776Z,16.07
2023-01-05T11:30:09.654Z,20.10
2023-01-05T11:32:40.691Z,19.23
2023-01-05T11:35:22.644Z,13.20
2023-01-05T11:37:52.300Z,11.70
2023-01-05T11:40:25.104Z,10.30
2023-01-05T11:45:30.044Z,15.48
2023-01-05T11:48:07.188Z,10.03
2023-01-05T11:50:48.953Z,9.23
2023-01-05T11:53:36.735Z,11.70
2023-01-05T11:56:12.417Z,9.08
2023-01-05T11:58:47.772Z,12.05
2023-01-05T12:01:46.557Z,14.65
2023-01-05T12:04:41.807Z,16.05
2023-01-05T12:07:32.425Z,9.65
2023-01-05T12:10:22.306Z,13.88
2023-01-05T12:12:57.629Z,16.12
2023-01-05T12:15:33.055Z,16.27
2023-01-05T12:18:24.302Z,15.90
2023-01-05T12:21:14.889Z,15.30
2023-01-05T12:24:10.249Z,12.25
2023-01-05T12:27:06.745Z,11.63
2023-01-05T12:35:33.953Z,10.80
2023-01-05T12:38:30.484Z,12.95
2023-01-05T12:41:11.727Z,14.40
2023-01-05T12:44:02.179Z,11.10
2023-01-05T12:46:50.400Z,12.40
2023-01-05T12:49:26.099Z,11.88
2023-01-05T12:52:04.374Z,11.70
2023-01-05T12:54:42.583Z,9.70
2023-01-05T12:57:39.511Z,9.27
2023-01-05T13:00:15.031Z,8.77
2023-01-05T13:03:02.680Z,6.75
2023-01-05T13:05:46.339Z,7.50
2023-01-05T13:08:23.561Z,6.47
2023-01-05T13:11:02.163Z,6.87
2023-01-05T13:13:40.880Z,9.55
2023-01-05T13:16:28.100Z,4.90
2023-01-05T13:19:00.992Z,9.38
2023-01-05T13:21:31.926Z,8.90
2023-01-05T13:24:24.684Z,9.90
2023-01-05T13:26:54.295Z,6.53
2023-01-05T13:29:27.163Z,6.15
2023-01-05T13:32:14.765Z,8.75
2023-01-05T13:35:16.644Z,14.50
2023-01-05T13:38:05.392Z,9.35
2023-01-05T13:40:43.697Z,10.30
2023-01-05T13:43:22.142Z,13.28
2023-01-05T13:45:55.884Z,8.58
2023-01-05T13:48:45.267Z,8.43
2023-01-05T13:51:35.644Z,12.37
2023-01-05T13:54:09.311Z,8.43
2023-01-05T13:56:41.231Z,11.22
2023-01-05T13:59:24.640Z,10.50
2023-01-05T14:01:48.689Z,9.38
2023-01-05T14:04:32.742Z,11.90
2023-01-05T14:07:04.467Z,13.60
2023-01-05T14:09:36.966Z,9.53
2023-01-05T14:12:14.261Z,10.60
2023-01-05T14:15:05.919Z,8.65
2023-01-05T14:20:37.213Z,11.85
2023-01-05T14:23:29.596Z,8.90
2023-01-05T14:26:09.430Z,10.23
2023-01-05T14:28:44.782Z,13.35
2023-01-05T14:31:17.340Z,9.15
2023-01-05T14:36:41.665Z,8.98
2023-01-05T14:41:59.287Z,6.67
2023-01-05T14:44:52.694Z,11.12
2023-01-05T14:49:56.188Z,7.37
2023-01-05T14:52:54.452Z,9.78
2023-01-05T14:55:38.682Z,8.95
2023-01-05T14:58:04.461Z,6.67
2023-01-05T15:00:55.138Z,9.10
2023-01-05T15:03:31.503Z,6.53
2023-01-05T15:06:14.919Z,8.50
2023-01-05T15:09:07.944Z,7.83
2023-01-05T15:12:12.722Z,8.83
2023-01-05T15:14:50.890Z,10.70
2023-01-05T15:17:40.421Z,7.83
2023-01-05T15:20:29.147Z,7.85
2023-01-05T15:23:26.015Z,12.40
2023-01-05T15:26:31.872Z,15.08
2023-01-05T15:29:13.565Z,7.97
2023-01-05T15:31:48.685Z,12.10
2023-01-05T15:34:40.924Z,10.82
2023-01-05T15:37:30.291Z,9.33
2023-01-05T15:40:04.647Z,12.93
2023-01-05T15:42:45.992Z,11.18
2023-01-05T15:45:37.319Z,12.03
2023-01-05T15:48:10.110Z,12.73
2023-01-05T15:50:51.955Z,15.95
2023-01-05T15:53:27.541Z,12.77
2023-01-05T15:55:58.425Z,12.18
2023-01-05T15:58:31.237Z,10.95
2023-01-05T16:01:09.998Z,10.25
2023-01-05T16:03:41.826Z,9.50
2023-01-05T16:06:31.140Z,10.48
2023-01-05T16:09:03.646Z,13.32
2023-01-05T16:11:36.646Z,10.05
2023-01-05T16:16:57.687Z,12.00
2023-01-05T16:19:19.080Z,11.08
2023-01-05T16:21:51.716Z,14.35
2023-01-05T16:24:30.222Z,12.63
2023-01-05T16:27:01.301Z,11.15
2023-01-05T16:29:38.432Z,13.40
2023-01-05T16:32:26.540Z,13.72
2023-01-05T16:35:15.688Z,12.55
2023-01-05T16:37:47.137Z,14.68
2023-01-05T16:40:23.288Z,12.53
2023-01-05T16:42:52.842Z,12.47
2023-01-05T16:45:25.275Z,9.67
2023-01-05T16:47:56.680Z,9.95
2023-01-05T16:50:31.935Z,13.60
2023-01-05T16:53:09.617Z,23.80
2023-01-05T16:55:40.660Z,23.20
2023-01-05T16:58:31.384Z,22.05
2023-01-05T17:01:16.748Z,14.45
2023-01-05T17:03:47.177Z,13.93
2023-01-05T17:06:25.350Z,12.60
2023-01-05T17:08:56.972Z,14.47
2023-01-05T17:11:29.473Z,12.87
2023-01-05T17:13:59.183Z,21.77
2023-01-05T17:16:29.222Z,25.37
2023-01-05T17:19:00.871Z,21.23
2023-01-05T17:21:33.100Z,22.07
2023-01-05T17:24:02.939Z,21.33
2023-01-05T17:26:35.536Z,16.25
2023-01-05T17:29:08.533Z,21.37
2023-01-05T17:34:06.793Z,19.25
2023-01-05T17:36:37.002Z,20.15
2023-01-05T17:39:06.710Z,23.32
2023-01-05T17:41:38.005Z,49.67
2023-01-05T17:44:07.612Z,21.97
2023-01-05T17:46:41.455Z,16.95
2023-01-05T17:49:17.130Z,32.45
2023-01-05T17:51:47.702Z,25.97
2023-01-05T17:54:18.153Z,23.75
2023-01-05T17:56:47.876Z,30.37
2023-01-05T17:59:17.581Z,26.48
2023-01-05T18:01:47.915Z,34.63
2023-01-05T18:04:17.831Z,35.48
2023-01-05T18:09:16.942Z,37.53
2023-01-05T18:11:46.381Z,31.62
2023-01-05T18:14:16.295Z,31.23
2023-01-05T18:16:46.609Z,39.65
2023-01-05T18:19:16.812Z,37.42
2023-01-05T18:21:46.325Z,28.17
2023-01-05T18:24:15.747Z,30.43
2023-01-05T18:26:46.632Z,31.73
2023-01-05T18:29:16.925Z,36.23
2023-01-05T18:31:46.948Z,32.98
2023-01-05T18:34:16.459Z,35.85
2023-01-05T18:36:46.242Z,35.17
2023-01-05T18:39:16.048Z,69.25
2023-01-05T18:41:45.610Z,40.67
2023-01-05T18:44:15.651Z,27.80
2023-01-05T18:46:45.412Z,30.35
2023-01-05T18:49:17.325Z,33.53
2023-01-05T18:51:46.768Z,30.75
2023-01-05T18:54:16.215Z,31.60
2023-01-05T18:56:45.756Z,30.15
2023-01-05T18:59:16.033Z,32.30
2023-01-05T19:01:45.658Z,37.65
2023-01-05T19:04:17.285Z,29.20
2023-01-05T19:06:46.960Z,34.15
2023-01-05T19:09:16.441Z,37.75
2023-01-05T19:11:48.916Z,36.42
2023-01-05T19:14:19.378Z,35.28
2023-01-05T19:16:49.149Z,38.83
2023-01-05T19:19:20.214Z,54.75
2023-01-05T19:24:21.819Z,48.15
2023-01-05T19:26:51.373Z,43.03
2023-01-05T19:29:22.297Z,49.45
2023-01-05T19:31:51.789Z,49.03
2023-01-05T19:34:21.577Z,46.77
2023-01-05T19:36:51.146Z,49.30
2023-01-05T19:39:22.700Z,55.15
2023-01-05T19:41:52.724Z,55.33
2023-01-05T19:44:23.586Z,56.28
2023-01-05T19:46:54.539Z,60.65
2023-01-05T19:49:26.908Z,56.02
2023-01-05T19:51:56.994Z,61.63
2023-01-05T19:54:26.624Z,64.33
2023-01-05T19:56:56.608Z,60.30
2023-01-05T19:59:28.941Z,57.62
2023-01-05T20:01:58.634Z,56.73
2023-01-05T20:04:29.958Z,66.77
2023-01-05T20:07:04.132Z,59.75
2023-01-05T20:09:33.969Z,65.40
2023-01-05T20:12:13.805Z,65.52
2023-01-05T20:14:35.333Z,63.90
2023-01-05T20:17:08.228Z,62.85
2023-01-05T20:19:39.466Z,73.22
2023-01-05T20:22:15.542Z,98.65
2023-01-05T20:24:45.657Z,82.75
2023-01-05T20:27:17.081Z,122.65
2023-01-05T20:29:47.474Z,105.30
2023-01-05T20:32:20.055Z,105.95
2023-01-05T20:34:55.325Z,98.40
2023-01-05T20:37:25.375Z,99.45
2023-01-05T20:39:59.701Z,89.42
2023-01-05T20:42:30.453Z,91.43
2023-01-05T20:45:01.364Z,102.38
2023-01-05T20:47:39.434Z,107.52
2023-01-05T20:50:02.770Z,110.40
2023-01-05T20:52:32.270Z,98.45
2023-01-05T20:55:01.706Z,95.62
2023-01-05T20:57:31.321Z,93.70
2023-01-05T21:00:00.870Z,88.30
2023-01-05T21:02:30.343Z,93.90
2023-01-05T21:05:00.119Z,91.40
2023-01-05T21:07:29.684Z,86.95
2023-01-05T21:09:59.244Z,78.90
2023-01-05T21:12:29.326Z,60.47
2023-01-05T21:14:59.124Z,56.73
2023-01-05T21:17:29.051Z,48.50
2023-01-05T21:19:58.591Z,53.92
2023-01-05T21:22:28.068Z,49.88
2023-01-05T21:24:57.629Z,42.65
2023-01-05T21:27:27.220Z,41.18
2023-01-05T21:29:56.780Z,42.70
2023-01-05T21:32:27.214Z,42.17
2023-01-05T21:34:56.636Z,38.30
2023-01-05T21:37:26.075Z,39.20
2023-01-05T21:39:55.544Z,44.13
2023-01-05T21:42:44.776Z,46.40
2023-01-05T21:45:15.828Z,53.25
2023-01-05T21:47:47.955Z,65.32
2023-01-05T21:50:19.192Z,58.17
2023-01-05T21:53:06.342Z,55.85
2023-01-05T21:55:55.064Z,54.95
2023-01-05T21:58:43.906Z,52.15
2023-01-05T22:01:14.117Z,49.77
2023-01-05T22:03:44.055Z,56.60
2023-01-05T22:06:14.745Z,61.77
2023-01-05T22:08:44.229Z,64.62
2023-01-05T22:11:14.764Z,57.03
2023-01-05T22:13:44.278Z,59.88
2023-01-05T22:16:14.071Z,52.78
2023-01-05T22:18:43.651Z,63.95
2023-01-05T22:21:14.944Z,60.05
2023-01-05T22:23:45.326Z,68.67
2023-01-05T22:26:17.531Z,70.70
2023-01-05T22:28:48.503Z,72.45
2023-01-05T22:31:20.930Z,62.75
2023-01-05T22:33:54.067Z,57.08
2023-01-05T22:36:24.980Z,52.23
2023-01-05T22:38:56.061Z,53.73
2023-01-05T22:41:30.223Z,58.40
2023-01-05T22:44:02.036Z,56.88
2023-01-05T22:46:32.595Z,59.77
2023-01-05T22:51:34.011Z,57.88
2023-01-05T22:54:06.072Z,62.83
2023-01-05T22:59:05.948Z,60.33
2023-01-05T23:04:09.600Z,62.43
2023-01-05T23:09:10.774Z,60.78
2023-01-05T23:11:41.749Z,61.88
2023-01-05T23:14:13.255Z,61.68
2023-01-05T23:16:42.889Z,58.30
2023-01-05T23:19:15.442Z,58.75
2023-01-05T23:21:44.871Z,60.50
2023-01-05T23:24:14.401Z,56.33
2023-01-05T23:26:43.859Z,52.17
2023-01-05T23:29:13.261Z,58.93
2023-01-05T23:31:42.683Z,53.92
2023-01-05T23:34:12.260Z,56.07
2023-01-05T23:36:41.699Z,50.65
2023-01-05T23:39:11.250Z,55.20
2023-01-05T23:41:41.166Z,50.15
2023-01-05T23:44:12.238Z,51.23
2023-01-05T23:46:42.139Z,50.90
2023-01-05T23:49:11.596Z,46.15
2023-01-05T23:52:00.364Z,41.95
2023-01-05T23:54:30.003Z,40.43
2023-01-05T23:56:59.512Z,40.75
2023-01-05T23:59:28.920Z,44.80
